createdAt,value
2017-09-28T00:00:15.727Z,1016.2
2017-09-28T00:01:15.715Z,1016.19
2017-09-28T00:02:15.695Z,1016.22
2017-09-28T00:03:15.686Z,1016.25
2017-09-28T00:04:15.658Z,1016.21
2017-09-28T00:05:15.637Z,1016.23
2017-09-28T00:06:15.621Z,1016.28
2017-09-28T00:07:15.606Z,1016.24
2017-09-28T00:08:15.585Z,1016.25
2017-09-28T00:09:15.566Z,1016.27
2017-09-28T00:10:15.564Z,1016.25
2017-09-28T00:23:40.312Z,1016.27
2017-09-28T00:24:40.299Z,1016.27
2017-09-28T00:25:40.280Z,1016.3
2017-09-28T00:26:40.264Z,1016.32
2017-09-28T00:27:40.239Z,1016.31
2017-09-28T00:28:40.225Z,1016.31
2017-09-28T00:29:40.209Z,1016.33
2017-09-28T00:30:40.222Z,1016.34
2017-09-28T00:31:40.175Z,1016.32
2017-09-28T00:32:40.154Z,1016.32
2017-09-28T00:33:40.143Z,1016.29
2017-09-28T00:34:40.125Z,1016.32
2017-09-28T00:35:40.102Z,1016.33
2017-09-28T00:36:40.081Z,1016.31
2017-09-28T00:37:40.070Z,1016.3
2017-09-28T00:38:40.047Z,1016.3
2017-09-28T00:39:40.031Z,1016.34
2017-09-28T00:40:40.012Z,1016.36
2017-09-28T00:41:39.992Z,1016.35
2017-09-28T00:42:39.983Z,1016.36
2017-09-28T00:43:39.966Z,1016.37
2017-09-28T00:44:39.943Z,1016.36
2017-09-28T00:45:39.923Z,1016.36
2017-09-28T00:46:39.904Z,1016.34
2017-09-28T00:47:39.892Z,1016.31
2017-09-28T00:48:39.873Z,1016.35
2017-09-28T00:49:39.851Z,1016.31
2017-09-28T00:50:39.832Z,1016.31
2017-09-28T00:51:39.821Z,1016.29
2017-09-28T00:52:39.805Z,1016.3
2017-09-28T00:53:39.777Z,1016.31
2017-09-28T00:54:39.773Z,1016.31
2017-09-28T00:55:39.746Z,1016.29
2017-09-28T00:56:39.726Z,1016.28
2017-09-28T00:57:39.712Z,1016.29
2017-09-28T00:58:39.699Z,1016.31
2017-09-28T00:59:39.671Z,1016.28
2017-09-28T01:00:39.652Z,1016.29
2017-09-28T01:01:39.642Z,1016.29
2017-09-28T01:02:39.617Z,1016.25
2017-09-28T01:03:39.604Z,1016.25
2017-09-28T01:04:39.583Z,1016.25
2017-09-28T01:05:39.562Z,1016.25
2017-09-28T01:06:39.551Z,1016.2
2017-09-28T01:07:39.532Z,1016.23
2017-09-28T01:08:39.513Z,1016.19
2017-09-28T01:09:39.491Z,1016.24
2017-09-28T01:10:39.476Z,1016.24
2017-09-28T01:11:39.459Z,1016.26
2017-09-28T01:12:39.435Z,1016.26
2017-09-28T01:13:39.421Z,1016.26
2017-09-28T01:14:39.399Z,1016.23
2017-09-28T01:15:39.381Z,1016.22
2017-09-28T01:16:39.367Z,1016.23
2017-09-28T01:17:39.350Z,1016.24
2017-09-28T01:18:39.331Z,1016.21
2017-09-28T01:19:39.312Z,1016.2
2017-09-28T01:20:39.333Z,1016.18
2017-09-28T01:21:39.280Z,1016.22
2017-09-28T01:22:39.263Z,1016.21
2017-09-28T01:23:39.241Z,1016.23
2017-09-28T01:24:39.222Z,1016.2
2017-09-28T01:25:39.200Z,1016.17
2017-09-28T01:26:39.185Z,1016.19
2017-09-28T01:27:39.173Z,1016.19
2017-09-28T01:28:39.170Z,1016.22
2017-09-28T01:29:39.131Z,1016.18
2017-09-28T01:30:39.124Z,1016.18
2017-09-28T01:31:39.100Z,1016.19
2017-09-28T01:32:39.083Z,1016.17
2017-09-28T01:33:39.061Z,1016.2
2017-09-28T01:34:39.051Z,1016.22
2017-09-28T01:35:39.022Z,1016.25
2017-09-28T01:36:39.011Z,1016.24
2017-09-28T01:37:38.986Z,1016.24
2017-09-28T01:38:39.093Z,1016.24
2017-09-28T01:39:38.951Z,1016.24
2017-09-28T01:40:38.942Z,1016.21
2017-09-28T01:41:38.921Z,1016.23
2017-09-28T01:42:38.921Z,1016.19
2017-09-28T01:43:38.881Z,1016.19
2017-09-28T01:44:38.881Z,1016.19
2017-09-28T01:45:38.842Z,1016.12
2017-09-28T01:46:38.830Z,1016.12
2017-09-28T01:47:38.824Z,1016.13
2017-09-28T01:48:38.801Z,1016.09
2017-09-28T01:49:38.776Z,1016.09
2017-09-28T01:50:38.760Z,1016.08
2017-09-28T01:51:38.741Z,1016.11
2017-09-28T01:52:38.721Z,1016.1
2017-09-28T01:53:38.704Z,1016.07
2017-09-28T01:54:38.686Z,1016.08
2017-09-28T01:55:38.668Z,1016.1
2017-09-28T01:56:38.650Z,1016.07
2017-09-28T01:57:38.632Z,1016.1
2017-09-28T01:58:38.611Z,1016.04
2017-09-28T01:59:38.595Z,1016.07
2017-09-28T02:00:38.579Z,1016.06
2017-09-28T02:01:38.559Z,1016.04
2017-09-28T02:02:38.540Z,1016.01
2017-09-28T02:03:38.522Z,1016.01
2017-09-28T02:04:38.506Z,1016.03
2017-09-28T02:05:38.487Z,1016.05
2017-09-28T02:06:38.469Z,1016.04
2017-09-28T02:07:38.452Z,1016.06
2017-09-28T02:08:38.435Z,1016.05
2017-09-28T02:09:38.412Z,1016.1
2017-09-28T02:10:38.402Z,1016.06
2017-09-28T02:11:38.376Z,1016.04
2017-09-28T02:12:38.362Z,1016.02
2017-09-28T02:13:38.340Z,1016.02
2017-09-28T02:14:38.323Z,1015.99
2017-09-28T02:15:38.308Z,1016.02
2017-09-28T02:16:38.292Z,1015.97
2017-09-28T02:17:38.270Z,1016
2017-09-28T02:18:38.251Z,1015.98
2017-09-28T02:19:38.234Z,1015.95
2017-09-28T02:20:38.215Z,1015.97
2017-09-28T02:21:38.202Z,1015.96
2017-09-28T02:22:38.182Z,1015.94
2017-09-28T02:23:38.162Z,1015.96
2017-09-28T02:24:38.142Z,1015.97
2017-09-28T02:25:38.126Z,1015.97
2017-09-28T02:26:38.108Z,1016.02
2017-09-28T02:27:38.089Z,1015.96
2017-09-28T02:28:38.071Z,1015.98
2017-09-28T02:29:38.051Z,1015.98
2017-09-28T02:30:38.040Z,1016
2017-09-28T02:31:38.026Z,1015.96
2017-09-28T02:32:38.000Z,1015.96
2017-09-28T02:33:37.981Z,1016
2017-09-28T02:34:37.963Z,1015.98
2017-09-28T02:35:37.952Z,1016.04
2017-09-28T02:36:37.928Z,1016.01
2017-09-28T02:37:37.912Z,1016.01
2017-09-28T02:38:37.888Z,1016.04
2017-09-28T02:39:37.871Z,1016.06
2017-09-28T02:40:37.859Z,1016.08
2017-09-28T02:41:37.841Z,1016.05
2017-09-28T02:42:37.821Z,1016.03
2017-09-28T02:43:37.801Z,1016.05
2017-09-28T02:44:37.795Z,1016.04
2017-09-28T02:45:37.770Z,1016.05
2017-09-28T02:46:37.746Z,1015.99
2017-09-28T02:47:37.731Z,1016.06
2017-09-28T02:48:37.710Z,1016.03
2017-09-28T02:49:37.690Z,1016.02
2017-09-28T02:50:37.677Z,1016.07
2017-09-28T02:51:37.661Z,1016.04
2017-09-28T02:52:37.639Z,1016.06
2017-09-28T02:53:37.619Z,1016.01
2017-09-28T02:54:37.599Z,1016.04
2017-09-28T02:55:37.589Z,1016.06
2017-09-28T02:56:37.569Z,1016.07
2017-09-28T02:57:37.550Z,1016.06
2017-09-28T02:58:37.529Z,1016.1
2017-09-28T02:59:37.518Z,1016.13
2017-09-28T03:00:37.491Z,1016.16
2017-09-28T03:01:37.479Z,1016.17
2017-09-28T03:02:37.458Z,1016.18
2017-09-28T03:03:37.439Z,1016.2
2017-09-28T03:04:37.443Z,1016.2
2017-09-28T03:05:37.404Z,1016.22
2017-09-28T03:06:37.390Z,1016.24
2017-09-28T03:07:37.367Z,1016.24
2017-09-28T03:08:37.387Z,1016.19
2017-09-28T03:09:37.332Z,1016.12
2017-09-28T03:10:37.317Z,1016.13
2017-09-28T03:11:37.305Z,1016.14
2017-09-28T03:12:37.278Z,1016.14
2017-09-28T03:13:37.261Z,1016.11
2017-09-28T03:14:37.293Z,1016.15
2017-09-28T03:15:37.224Z,1016.15
2017-09-28T03:16:37.210Z,1016.17
2017-09-28T03:17:37.188Z,1016.15
2017-09-28T03:18:37.180Z,1016.18
2017-09-28T03:19:37.150Z,1016.2
2017-09-28T03:20:37.134Z,1016.22
2017-09-28T03:21:37.118Z,1016.22
2017-09-28T03:22:37.099Z,1016.26
2017-09-28T03:23:37.078Z,1016.29
2017-09-28T03:24:37.067Z,1016.28
2017-09-28T03:25:37.048Z,1016.3
2017-09-28T03:26:37.077Z,1016.26
2017-09-28T03:27:37.006Z,1016.23
2017-09-28T03:28:36.988Z,1016.22
2017-09-28T03:29:36.976Z,1016.23
2017-09-28T03:30:36.952Z,1016.22
2017-09-28T03:31:36.935Z,1016.18
2017-09-28T03:32:36.918Z,1016.16
2017-09-28T03:33:36.899Z,1016.15
2017-09-28T03:34:36.881Z,1016.12
2017-09-28T03:35:36.867Z,1016.11
2017-09-28T03:36:36.849Z,1016.08
2017-09-28T03:37:36.827Z,1016.08
2017-09-28T03:38:36.859Z,1016.04
2017-09-28T03:39:36.799Z,1016.04
2017-09-28T03:40:36.778Z,1016.05
2017-09-28T03:41:36.753Z,1015.99
2017-09-28T03:42:36.787Z,1016.02
2017-09-28T03:43:36.722Z,1015.99
2017-09-28T03:44:36.702Z,1016
2017-09-28T03:45:36.694Z,1015.97
2017-09-28T03:46:36.667Z,1016.02
2017-09-28T03:47:36.645Z,1016
2017-09-28T03:48:36.628Z,1016.05
2017-09-28T03:49:36.610Z,1016
2017-09-28T03:50:36.591Z,1016.03
2017-09-28T03:51:36.578Z,1016.05
2017-09-28T03:52:36.561Z,1016.01
2017-09-28T03:53:36.539Z,1015.96
2017-09-28T03:54:36.527Z,1016
2017-09-28T03:55:36.502Z,1015.98
2017-09-28T03:56:36.489Z,1015.95
2017-09-28T03:57:36.466Z,1015.95
2017-09-28T03:58:36.447Z,1015.93
2017-09-28T03:59:36.431Z,1015.92
2017-09-28T04:00:36.416Z,1015.92
2017-09-28T04:01:36.397Z,1015.93
2017-09-28T04:02:36.380Z,1015.95
2017-09-28T04:03:36.358Z,1015.89
2017-09-28T04:04:36.344Z,1015.94
2017-09-28T04:05:36.323Z,1015.96
2017-09-28T04:06:36.302Z,1015.93
2017-09-28T04:07:36.287Z,1015.95
2017-09-28T04:08:36.274Z,1015.94
2017-09-28T04:09:36.250Z,1015.94
2017-09-28T04:10:36.236Z,1015.96
2017-09-28T04:11:36.214Z,1015.96
2017-09-28T04:12:36.206Z,1015.97
2017-09-28T04:13:36.178Z,1015.95
2017-09-28T04:14:36.167Z,1015.98
2017-09-28T04:15:36.141Z,1015.95
2017-09-28T04:16:36.126Z,1015.97
2017-09-28T04:17:36.111Z,1015.99
2017-09-28T04:18:36.087Z,1015.99
2017-09-28T04:19:36.072Z,1015.96
2017-09-28T04:20:36.055Z,1015.98
2017-09-28T04:21:36.039Z,1015.96
2017-09-28T04:22:36.014Z,1015.95
2017-09-28T04:23:36.001Z,1015.95
2017-09-28T04:24:35.978Z,1015.92
2017-09-28T04:25:35.964Z,1015.95
2017-09-28T04:26:35.941Z,1015.93
2017-09-28T04:27:35.927Z,1015.97
2017-09-28T04:28:35.911Z,1015.99
2017-09-28T04:29:35.889Z,1015.98
2017-09-28T04:30:35.874Z,1015.98
2017-09-28T04:31:35.862Z,1016.02
2017-09-28T04:32:35.834Z,1016.01
2017-09-28T04:33:35.819Z,1016.02
2017-09-28T04:34:35.799Z,1016.02
2017-09-28T04:35:35.783Z,1016.04
2017-09-28T04:36:35.770Z,1016.04
2017-09-28T04:37:35.750Z,1016.01
2017-09-28T04:38:35.728Z,1016.03
2017-09-28T04:39:35.705Z,1016.02
2017-09-28T04:40:35.692Z,1015.97
2017-09-28T04:41:35.682Z,1015.97
2017-09-28T04:42:35.661Z,1015.97
2017-09-28T04:43:35.637Z,1015.94
2017-09-28T04:44:35.617Z,1015.95
2017-09-28T04:45:35.603Z,1015.92
2017-09-28T04:46:35.577Z,1015.92
2017-09-28T04:47:35.567Z,1015.92
2017-09-28T04:48:35.544Z,1015.93
2017-09-28T04:49:35.528Z,1015.96
2017-09-28T04:50:35.506Z,1015.92
2017-09-28T04:51:35.492Z,1015.91
2017-09-28T04:52:35.485Z,1015.94
2017-09-28T04:53:35.456Z,1015.95
2017-09-28T04:54:35.436Z,1015.93
2017-09-28T04:55:35.417Z,1015.95
2017-09-28T04:56:35.409Z,1015.93
2017-09-28T04:57:35.381Z,1015.92
2017-09-28T04:58:35.363Z,1015.91
2017-09-28T04:59:35.347Z,1015.91
2017-09-28T05:00:35.328Z,1015.88
2017-09-28T05:01:35.310Z,1015.85
2017-09-28T05:02:35.298Z,1015.81
2017-09-28T05:03:35.271Z,1015.77
2017-09-28T05:04:35.258Z,1015.79
2017-09-28T05:05:35.239Z,1015.77
2017-09-28T05:06:35.228Z,1015.74
2017-09-28T05:07:35.204Z,1015.74
2017-09-28T05:08:35.186Z,1015.77
2017-09-28T05:09:35.167Z,1015.75
2017-09-28T05:10:35.148Z,1015.74
2017-09-28T05:11:35.127Z,1015.77
2017-09-28T05:12:35.108Z,1015.74
2017-09-28T05:13:35.094Z,1015.75
2017-09-28T05:14:35.071Z,1015.74
2017-09-28T05:15:35.060Z,1015.73
2017-09-28T05:16:35.040Z,1015.7
2017-09-28T05:17:35.019Z,1015.69
2017-09-28T05:18:35.008Z,1015.73
2017-09-28T05:19:34.989Z,1015.68
2017-09-28T05:20:34.967Z,1015.71
2017-09-28T05:21:34.950Z,1015.71
2017-09-28T05:22:34.936Z,1015.75
2017-09-28T05:23:34.908Z,1015.74
2017-09-28T05:24:34.889Z,1015.75
2017-09-28T05:25:34.878Z,1015.75
2017-09-28T05:26:34.867Z,1015.8
2017-09-28T05:27:34.846Z,1015.8
2017-09-28T05:28:34.819Z,1015.8
2017-09-28T05:29:34.798Z,1015.82
2017-09-28T05:30:34.789Z,1015.84
2017-09-28T05:31:34.765Z,1015.86
2017-09-28T05:32:34.751Z,1015.83
2017-09-28T05:33:34.731Z,1015.89
2017-09-28T05:34:34.711Z,1015.85
2017-09-28T05:35:34.699Z,1015.82
2017-09-28T05:36:34.673Z,1015.86
2017-09-28T05:37:34.654Z,1015.87
2017-09-28T05:38:34.635Z,1015.82
2017-09-28T05:39:34.619Z,1015.85
2017-09-28T05:40:34.619Z,1015.82
2017-09-28T05:41:34.581Z,1015.84
2017-09-28T05:42:34.568Z,1015.85
2017-09-28T05:43:34.558Z,1015.8
2017-09-28T05:44:34.543Z,1015.82
2017-09-28T05:45:34.508Z,1015.83
2017-09-28T05:46:34.488Z,1015.8
2017-09-28T05:47:34.475Z,1015.82
2017-09-28T05:48:34.458Z,1015.8
2017-09-28T05:49:34.450Z,1015.84
2017-09-28T05:50:34.417Z,1015.8
2017-09-28T05:51:34.406Z,1015.85
2017-09-28T05:52:34.378Z,1015.8
2017-09-28T05:53:34.368Z,1015.82
2017-09-28T05:54:34.348Z,1015.82
2017-09-28T05:55:34.333Z,1015.79
2017-09-28T05:56:34.311Z,1015.82
2017-09-28T05:57:34.288Z,1015.79
2017-09-28T05:58:34.289Z,1015.8
2017-09-28T05:59:34.257Z,1015.81
2017-09-28T06:00:34.233Z,1015.79
2017-09-28T06:01:34.217Z,1015.86
2017-09-28T06:02:34.207Z,1015.84
2017-09-28T06:03:34.179Z,1015.8
2017-09-28T06:04:34.166Z,1015.85
2017-09-28T06:05:34.143Z,1015.84
2017-09-28T06:06:34.128Z,1015.85
2017-09-28T06:07:34.106Z,1015.86
2017-09-28T06:08:34.085Z,1015.86
2017-09-28T06:09:34.068Z,1015.84
2017-09-28T06:10:34.048Z,1015.85
2017-09-28T06:11:34.033Z,1015.87
2017-09-28T06:12:34.017Z,1015.89
2017-09-28T06:13:33.999Z,1015.89
2017-09-28T06:14:33.976Z,1015.93
2017-09-28T06:15:33.959Z,1015.98
2017-09-28T06:16:34.194Z,1015.94
2017-09-28T06:17:33.926Z,1015.96
2017-09-28T06:18:33.909Z,1015.96
2017-09-28T06:19:33.888Z,1016.01
2017-09-28T06:20:33.878Z,1016.01
2017-09-28T06:21:33.850Z,1016.01
2017-09-28T06:22:33.840Z,1015.99
2017-09-28T06:23:33.814Z,1016.04
2017-09-28T06:24:33.797Z,1016
2017-09-28T06:25:33.778Z,1016.07
2017-09-28T06:26:33.759Z,1016.03
2017-09-28T06:27:33.742Z,1016.02
2017-09-28T06:28:33.724Z,1016.02
2017-09-28T06:29:33.712Z,1016.02
2017-09-28T06:30:33.690Z,1016.02
2017-09-28T06:31:33.670Z,1016.02
2017-09-28T06:32:33.652Z,1016.01
2017-09-28T06:33:33.632Z,1016.04
2017-09-28T06:34:33.616Z,1016
2017-09-28T06:35:33.598Z,1015.98
2017-09-28T06:36:33.583Z,1015.99
2017-09-28T06:37:33.562Z,1015.95
2017-09-28T06:38:33.550Z,1015.97
2017-09-28T06:39:33.535Z,1015.94
2017-09-28T06:40:33.505Z,1016
2017-09-28T06:41:33.490Z,1015.97
2017-09-28T06:42:33.471Z,1016.02
2017-09-28T06:43:33.452Z,1016.04
2017-09-28T06:44:33.433Z,1016.04
2017-09-28T06:45:33.418Z,1016.02
2017-09-28T06:46:33.400Z,1016.07
2017-09-28T06:47:33.380Z,1016.05
2017-09-28T06:48:33.360Z,1016.06
2017-09-28T06:49:33.369Z,1016.04
2017-09-28T06:50:33.331Z,1016.03
2017-09-28T06:51:33.313Z,1016.02
2017-09-28T06:52:33.290Z,1016.05
2017-09-28T06:53:33.282Z,1016.03
2017-09-28T06:54:33.254Z,1016.03
2017-09-28T06:55:33.249Z,1016.05
2017-09-28T06:56:33.219Z,1016.03
2017-09-28T06:57:33.201Z,1016.03
2017-09-28T06:58:33.180Z,1016.08
2017-09-28T06:59:33.172Z,1016.04
2017-09-28T07:00:33.153Z,1016.1
2017-09-28T07:01:33.134Z,1016.12
2017-09-28T07:02:33.120Z,1016.09
2017-09-28T07:03:33.097Z,1016.13
2017-09-28T07:04:33.080Z,1016.12
2017-09-28T07:05:33.060Z,1016.19
2017-09-28T07:06:33.041Z,1016.2
2017-09-28T07:07:33.022Z,1016.14
2017-09-28T07:08:33.006Z,1016.16
2017-09-28T07:09:32.987Z,1016.13
2017-09-28T07:10:32.971Z,1016.16
2017-09-28T07:11:32.950Z,1016.11
2017-09-28T07:12:32.934Z,1016.1
2017-09-28T07:13:32.920Z,1016.1
2017-09-28T07:14:32.900Z,1016.08
2017-09-28T07:15:32.876Z,1016.08
2017-09-28T07:16:32.860Z,1016.1
2017-09-28T07:17:32.839Z,1016.14
2017-09-28T07:18:32.823Z,1016.15
2017-09-28T07:19:32.810Z,1016.15
2017-09-28T07:20:32.790Z,1016.15
2017-09-28T07:21:32.769Z,1016.17
2017-09-28T07:22:32.750Z,1016.18
2017-09-28T07:23:32.732Z,1016.19
2017-09-28T07:24:32.718Z,1016.21
2017-09-28T07:25:32.703Z,1016.24
2017-09-28T07:26:32.682Z,1016.2
2017-09-28T07:27:32.679Z,1016.23
2017-09-28T07:28:32.649Z,1016.26
2017-09-28T07:29:32.637Z,1016.29
2017-09-28T07:30:32.610Z,1016.28
2017-09-28T07:31:32.590Z,1016.27
2017-09-28T07:32:32.573Z,1016.28
2017-09-28T07:33:32.551Z,1016.24
2017-09-28T07:34:32.540Z,1016.22
2017-09-28T07:35:32.523Z,1016.28
2017-09-28T07:36:32.497Z,1016.27
2017-09-28T07:37:32.488Z,1016.26
2017-09-28T07:38:32.466Z,1016.26
2017-09-28T07:39:32.453Z,1016.28
2017-09-28T07:40:32.424Z,1016.26
2017-09-28T07:41:32.412Z,1016.29
2017-09-28T07:42:32.392Z,1016.24
2017-09-28T07:43:32.378Z,1016.32
2017-09-28T07:44:32.358Z,1016.27
2017-09-28T07:45:32.340Z,1016.31
2017-09-28T07:46:32.323Z,1016.28
2017-09-28T07:47:32.309Z,1016.31
2017-09-28T07:48:32.293Z,1016.29
2017-09-28T07:49:32.272Z,1016.29
2017-09-28T07:50:32.251Z,1016.28
2017-09-28T07:51:32.230Z,1016.29
2017-09-28T07:52:32.215Z,1016.3
2017-09-28T07:53:32.198Z,1016.32
2017-09-28T07:54:32.187Z,1016.28
2017-09-28T07:55:32.172Z,1016.31
2017-09-28T07:56:32.146Z,1016.29
2017-09-28T07:57:32.187Z,1016.29
2017-09-28T07:58:32.122Z,1016.3
2017-09-28T07:59:32.102Z,1016.33
2017-09-28T08:00:32.078Z,1016.37
2017-09-28T08:01:32.057Z,1016.31
2017-09-28T08:02:32.041Z,1016.32
2017-09-28T08:03:32.025Z,1016.32
2017-09-28T08:04:32.009Z,1016.29
2017-09-28T08:05:31.990Z,1016.31
2017-09-28T08:06:31.977Z,1016.3
2017-09-28T08:07:31.957Z,1016.32
2017-09-28T08:08:31.941Z,1016.29
2017-09-28T08:09:31.917Z,1016.3
2017-09-28T08:10:31.912Z,1016.31
2017-09-28T08:11:31.893Z,1016.28
2017-09-28T08:12:31.868Z,1016.29
2017-09-28T08:13:31.860Z,1016.3
2017-09-28T08:14:31.836Z,1016.33
2017-09-28T08:15:31.820Z,1016.32
2017-09-28T08:16:31.802Z,1016.32
2017-09-28T08:17:31.792Z,1016.3
2017-09-28T08:18:31.769Z,1016.31
2017-09-28T08:19:31.752Z,1016.33
2017-09-28T08:20:31.730Z,1016.31
2017-09-28T08:21:31.717Z,1016.36
2017-09-28T08:22:31.695Z,1016.37
2017-09-28T08:23:31.682Z,1016.37
2017-09-28T08:24:31.663Z,1016.35
2017-09-28T08:25:31.648Z,1016.38
2017-09-28T08:26:31.629Z,1016.36
2017-09-28T08:27:31.617Z,1016.34
2017-09-28T08:28:31.593Z,1016.34
2017-09-28T08:29:31.576Z,1016.37
2017-09-28T08:30:31.563Z,1016.44
2017-09-28T08:31:31.588Z,1016.42
2017-09-28T08:32:31.532Z,1016.41
2017-09-28T08:33:31.510Z,1016.43
2017-09-28T08:34:31.491Z,1016.44
2017-09-28T08:35:31.480Z,1016.45
2017-09-28T08:36:31.459Z,1016.45
2017-09-28T08:37:31.440Z,1016.44
2017-09-28T08:38:31.424Z,1016.44
2017-09-28T08:39:31.418Z,1016.42
2017-09-28T08:40:31.388Z,1016.47
2017-09-28T08:41:31.481Z,1016.45
2017-09-28T08:42:31.359Z,1016.48
2017-09-28T08:43:31.436Z,1016.49
2017-09-28T08:44:31.318Z,1016.48
2017-09-28T08:45:31.304Z,1016.47
2017-09-28T08:46:31.286Z,1016.47
2017-09-28T08:47:31.270Z,1016.48
2017-09-28T08:48:31.257Z,1016.46
2017-09-28T08:49:31.291Z,1016.43
2017-09-28T08:50:31.219Z,1016.39
2017-09-28T08:51:31.203Z,1016.41
2017-09-28T08:52:31.181Z,1016.42
2017-09-28T08:53:31.219Z,1016.41
2017-09-28T08:54:31.152Z,1016.44
2017-09-28T08:55:31.235Z,1016.4
2017-09-28T08:56:31.120Z,1016.37
2017-09-28T08:57:31.104Z,1016.39
2017-09-28T08:58:31.088Z,1016.37
2017-09-28T08:59:31.114Z,1016.4
2017-09-28T09:00:31.051Z,1016.39
2017-09-28T09:01:31.034Z,1016.42
2017-09-28T09:02:31.015Z,1016.43
2017-09-28T09:03:31.005Z,1016.39
2017-09-28T09:04:30.989Z,1016.39
2017-09-28T09:05:30.975Z,1016.39
2017-09-28T09:06:30.955Z,1016.44
2017-09-28T09:07:30.932Z,1016.41
2017-09-28T09:08:30.922Z,1016.44
2017-09-28T09:09:30.901Z,1016.44
2017-09-28T09:10:30.883Z,1016.46
2017-09-28T09:11:30.867Z,1016.5
2017-09-28T09:12:30.851Z,1016.46
2017-09-28T09:13:30.841Z,1016.43
2017-09-28T09:14:30.823Z,1016.42
2017-09-28T09:15:30.801Z,1016.39
2017-09-28T09:16:30.791Z,1016.42
2017-09-28T09:17:30.777Z,1016.41
2017-09-28T09:18:30.758Z,1016.4
2017-09-28T09:19:30.740Z,1016.43
2017-09-28T09:20:30.723Z,1016.43
2017-09-28T09:21:30.711Z,1016.41
2017-09-28T09:22:30.690Z,1016.49
2017-09-28T09:23:30.672Z,1016.51
2017-09-28T09:24:30.657Z,1016.49
2017-09-28T09:25:30.638Z,1016.5
2017-09-28T09:26:30.633Z,1016.47
2017-09-28T09:27:30.612Z,1016.47
2017-09-28T09:28:30.593Z,1016.49
2017-09-28T09:29:30.573Z,1016.52
2017-09-28T09:30:30.571Z,1016.47
2017-09-28T09:31:30.540Z,1016.51
2017-09-28T09:32:30.524Z,1016.48
2017-09-28T09:33:30.509Z,1016.46
2017-09-28T09:34:30.500Z,1016.45
2017-09-28T09:35:30.481Z,1016.41
2017-09-28T09:36:30.460Z,1016.41
2017-09-28T09:37:30.445Z,1016.37
2017-09-28T09:38:30.431Z,1016.38
2017-09-28T09:39:30.421Z,1016.33
2017-09-28T09:40:30.400Z,1016.38
2017-09-28T09:41:30.388Z,1016.35
2017-09-28T09:42:30.370Z,1016.39
2017-09-28T09:43:30.360Z,1016.38
2017-09-28T09:44:30.343Z,1016.37
2017-09-28T09:45:30.318Z,1016.33
2017-09-28T09:46:30.311Z,1016.29
2017-09-28T09:47:30.287Z,1016.26
2017-09-28T09:48:30.291Z,1016.25
2017-09-28T09:49:30.255Z,1016.22
2017-09-28T09:50:30.240Z,1016.18
2017-09-28T09:51:30.223Z,1016.14
2017-09-28T09:52:30.214Z,1016.17
2017-09-28T09:53:30.191Z,1016.16
2017-09-28T09:54:30.182Z,1016.14
2017-09-28T09:55:30.160Z,1016.19
2017-09-28T09:56:30.151Z,1016.17
2017-09-28T09:57:30.132Z,1016.21
2017-09-28T09:58:30.123Z,1016.22
2017-09-28T09:59:30.098Z,1016.24
2017-09-28T10:00:30.092Z,1016.26
2017-09-28T10:01:30.074Z,1016.25
2017-09-28T10:02:30.068Z,1016.27
2017-09-28T10:03:30.045Z,1016.27
2017-09-28T10:04:30.033Z,1016.29
2017-09-28T10:05:30.008Z,1016.33
2017-09-28T10:06:29.991Z,1016.36
2017-09-28T10:07:29.983Z,1016.39
2017-09-28T10:08:29.963Z,1016.39
2017-09-28T10:09:29.956Z,1016.44
2017-09-28T10:10:29.931Z,1016.43
2017-09-28T10:11:29.912Z,1016.44
2017-09-28T10:12:29.903Z,1016.44
2017-09-28T10:13:29.883Z,1016.42
2017-09-28T10:14:29.863Z,1016.46
2017-09-28T10:15:29.850Z,1016.44
2017-09-28T10:16:29.832Z,1016.44
2017-09-28T10:17:29.818Z,1016.44
2017-09-28T10:18:29.803Z,1016.44
2017-09-28T10:19:29.783Z,1016.43
2017-09-28T10:20:29.771Z,1016.43
2017-09-28T10:21:29.751Z,1016.4
2017-09-28T10:22:29.742Z,1016.42
2017-09-28T10:23:29.722Z,1016.41
2017-09-28T10:24:29.710Z,1016.41
2017-09-28T10:25:29.689Z,1016.38
2017-09-28T10:26:29.679Z,1016.36
2017-09-28T10:27:29.659Z,1016.41
2017-09-28T10:28:29.646Z,1016.36
2017-09-28T10:29:29.629Z,1016.35
2017-09-28T10:30:29.622Z,1016.4
2017-09-28T10:31:29.601Z,1016.33
2017-09-28T10:32:29.582Z,1016.36
2017-09-28T10:33:29.565Z,1016.35
2017-09-28T10:34:29.550Z,1016.33
2017-09-28T10:35:29.532Z,1016.38
2017-09-28T10:36:29.518Z,1016.38
2017-09-28T10:37:29.500Z,1016.4
2017-09-28T10:38:29.500Z,1016.37
2017-09-28T10:39:29.484Z,1016.38
2017-09-28T10:40:29.462Z,1016.41
2017-09-28T10:41:29.440Z,1016.39
2017-09-28T10:42:29.430Z,1016.35
2017-09-28T10:43:29.411Z,1016.41
2017-09-28T10:44:29.403Z,1016.43
2017-09-28T10:45:29.382Z,1016.44
2017-09-28T10:46:29.369Z,1016.48
2017-09-28T10:47:29.351Z,1016.49
2017-09-28T10:48:29.337Z,1016.46
2017-09-28T10:49:29.320Z,1016.46
2017-09-28T10:50:29.312Z,1016.49
2017-09-28T10:51:29.292Z,1016.47
2017-09-28T10:52:29.280Z,1016.42
2017-09-28T10:53:29.263Z,1016.44
2017-09-28T10:54:29.252Z,1016.43
2017-09-28T10:55:29.231Z,1016.42
2017-09-28T10:56:29.217Z,1016.4
2017-09-28T10:57:29.200Z,1016.41
2017-09-28T10:58:29.204Z,1016.36
2017-09-28T10:59:29.170Z,1016.42
2017-09-28T11:00:29.159Z,1016.39
2017-09-28T11:01:29.141Z,1016.42
2017-09-28T11:02:29.120Z,1016.43
2017-09-28T11:03:29.108Z,1016.42
2017-09-28T11:04:29.092Z,1016.43
2017-09-28T11:05:29.083Z,1016.5
2017-09-28T11:06:29.060Z,1016.45
2017-09-28T11:07:29.052Z,1016.43
2017-09-28T11:08:29.033Z,1016.45
2017-09-28T11:09:29.020Z,1016.45
2017-09-28T11:10:29.000Z,1016.45
2017-09-28T11:11:28.989Z,1016.48
2017-09-28T11:12:28.974Z,1016.49
2017-09-28T11:13:28.960Z,1016.48
2017-09-28T11:14:28.943Z,1016.45
2017-09-28T11:15:28.939Z,1016.46
2017-09-28T11:16:28.920Z,1016.47
2017-09-28T11:17:28.900Z,1016.46
2017-09-28T11:18:28.891Z,1016.5
2017-09-28T11:19:28.873Z,1016.55
2017-09-28T11:20:28.864Z,1016.54
2017-09-28T11:21:28.844Z,1016.52
2017-09-28T11:22:28.852Z,1016.49
2017-09-28T11:23:28.813Z,1016.5
2017-09-28T11:24:28.801Z,1016.45
2017-09-28T11:25:28.780Z,1016.46
2017-09-28T11:26:28.766Z,1016.43
2017-09-28T11:27:28.763Z,1016.46
2017-09-28T11:28:28.739Z,1016.48
2017-09-28T11:29:28.720Z,1016.46
2017-09-28T11:30:28.714Z,1016.48
2017-09-28T11:31:28.694Z,1016.48
2017-09-28T11:32:28.686Z,1016.46
2017-09-28T11:33:28.666Z,1016.48
2017-09-28T11:34:28.651Z,1016.44
2017-09-28T11:35:28.643Z,1016.44
2017-09-28T11:36:28.624Z,1016.4
2017-09-28T11:37:28.611Z,1016.39
2017-09-28T11:38:28.590Z,1016.36
2017-09-28T11:39:28.584Z,1016.38
2017-09-28T11:40:28.570Z,1016.33
2017-09-28T11:41:28.547Z,1016.33
2017-09-28T11:42:28.542Z,1016.34
2017-09-28T11:43:28.521Z,1016.31
2017-09-28T11:44:28.509Z,1016.29
2017-09-28T11:45:28.490Z,1016.33
2017-09-28T11:46:28.476Z,1016.3
2017-09-28T11:47:28.460Z,1016.32
2017-09-28T11:48:28.450Z,1016.27
2017-09-28T11:49:28.440Z,1016.26
2017-09-28T11:50:28.420Z,1016.23
2017-09-28T11:51:28.403Z,1016.25
2017-09-28T11:52:28.391Z,1016.24
2017-09-28T11:53:28.380Z,1016.21
2017-09-28T11:54:28.369Z,1016.18
2017-09-28T11:55:28.349Z,1016.14
2017-09-28T11:56:28.340Z,1016.12
2017-09-28T11:57:28.320Z,1016.08
2017-09-28T11:58:28.341Z,1016.07
2017-09-28T11:59:28.296Z,1016.06
2017-09-28T12:00:28.280Z,1016.05
2017-09-28T12:01:28.270Z,1016.03
2017-09-28T12:02:28.249Z,1015.98
2017-09-28T12:03:28.239Z,1016.01
2017-09-28T12:04:28.223Z,1016
2017-09-28T12:05:28.210Z,1015.99
2017-09-28T12:06:28.201Z,1015.96
2017-09-28T12:07:28.182Z,1015.95
2017-09-28T12:08:28.165Z,1016
2017-09-28T12:09:28.153Z,1016.02
2017-09-28T12:10:28.140Z,1016.01
2017-09-28T12:11:28.124Z,1016
2017-09-28T12:12:28.108Z,1016.02
2017-09-28T12:13:28.096Z,1016.05
2017-09-28T12:14:28.090Z,1016.06
2017-09-28T12:15:28.070Z,1016.08
2017-09-28T12:16:28.054Z,1016.08
2017-09-28T12:17:28.038Z,1016.08
2017-09-28T12:18:28.026Z,1016.11
2017-09-28T12:19:28.011Z,1016.13
2017-09-28T12:20:27.996Z,1016.17